Terminal Aerodrome Forecast
Issued by NWS Wichita, KS

Home | Current Version | Previous Version | Graphics & Text | Print | Product List | Glossary On
Versions: 1 2 3 4 5 6 7 8 9 10 11 12 13 14 15 16 17 18 19
011
FTUS43 KICT 112322
TAFICT
TAF
KICT 112322Z 1200/1224 VRB05KT P6SM SCT250
     FM120700 25006KT P6SM SCT250
     FM120900 30007KT P6SM SCT250
     FM121200 35010KT P6SM SCT250
     FM121900 03007KT P6SM SCT250=

USA.gov is the U.S. government's official web portal to all federal, state and local government web resources and services.